createdAt,value
2023-04-23T00:00:09.545Z,461.00
2023-04-23T00:01:09.573Z,462.00
2023-04-23T00:02:09.654Z,462.00
2023-04-23T00:03:09.784Z,461.00
2023-04-23T00:04:09.874Z,461.00
2023-04-23T00:05:09.844Z,460.00
2023-04-23T00:06:09.840Z,460.00
2023-04-23T00:07:09.902Z,459.00
2023-04-23T00:08:09.933Z,462.00
2023-04-23T00:09:10.028Z,463.00
2023-04-23T00:10:10.059Z,464.00
2023-04-23T00:11:10.117Z,465.00
2023-04-23T00:12:10.138Z,464.00
2023-04-23T00:13:10.177Z,465.00
2023-04-23T00:14:10.235Z,464.00
2023-04-23T00:15:10.290Z,464.00
2023-04-23T00:16:10.316Z,464.00
2023-04-23T00:17:10.343Z,464.00
2023-04-23T00:18:10.403Z,465.00
2023-04-23T00:19:10.427Z,466.00
2023-04-23T00:20:10.509Z,468.00
2023-04-23T00:21:10.522Z,469.00
2023-04-23T00:22:10.553Z,472.00
2023-04-23T00:23:10.626Z,469.00
2023-04-23T00:24:10.641Z,469.00
2023-04-23T00:25:10.651Z,468.00
2023-04-23T00:26:10.664Z,466.00
2023-04-23T00:27:10.737Z,466.00
2023-04-23T00:28:10.711Z,466.00
2023-04-23T00:29:10.707Z,464.00
2023-04-23T00:30:10.729Z,466.00
2023-04-23T00:31:10.770Z,465.00
2023-04-23T00:32:10.896Z,467.00
2023-04-23T00:33:10.850Z,468.00
2023-04-23T00:34:10.864Z,468.00
2023-04-23T00:35:10.857Z,470.00
2023-04-23T00:36:10.909Z,471.00
2023-04-23T00:37:10.919Z,469.00
2023-04-23T00:38:10.995Z,471.00
2023-04-23T00:39:10.994Z,469.00
2023-04-23T00:40:10.997Z,467.00
2023-04-23T00:41:11.057Z,465.00
2023-04-23T00:42:11.083Z,464.00
2023-04-23T00:43:11.069Z,465.00
2023-04-23T00:44:11.098Z,464.00
2023-04-23T00:45:11.066Z,465.00
2023-04-23T00:46:11.114Z,462.00
2023-04-23T00:47:11.095Z,461.00
2023-04-23T00:48:11.126Z,462.00
2023-04-23T00:49:11.095Z,461.00
2023-04-23T00:50:11.130Z,462.00
2023-04-23T00:51:11.123Z,462.00
2023-04-23T00:52:11.122Z,462.00
2023-04-23T00:53:11.139Z,462.00
2023-04-23T00:54:11.119Z,460.00
2023-04-23T00:55:11.119Z,460.00
2023-04-23T00:56:11.101Z,461.00
2023-04-23T00:57:11.102Z,460.00
2023-04-23T00:58:11.145Z,458.00
2023-04-23T00:59:11.128Z,458.00
2023-04-23T01:00:11.100Z,458.00
2023-04-23T01:01:11.156Z,455.00
2023-04-23T01:02:11.215Z,457.00
2023-04-23T01:03:11.202Z,456.00
2023-04-23T01:04:11.192Z,455.00
2023-04-23T01:05:11.094Z,455.00
2023-04-23T01:06:11.129Z,454.00
2023-04-23T01:07:11.132Z,458.00
2023-04-23T01:08:11.108Z,455.00
2023-04-23T01:09:11.104Z,453.00
2023-04-23T01:10:11.153Z,452.00
2023-04-23T01:11:11.108Z,453.00
2023-04-23T01:12:11.112Z,454.00
2023-04-23T01:13:11.124Z,457.00
2023-04-23T01:14:11.114Z,460.00
2023-04-23T01:15:11.097Z,463.00
2023-04-23T01:16:11.114Z,464.00
2023-04-23T01:17:11.138Z,463.00
2023-04-23T01:18:11.117Z,464.00
2023-04-23T01:19:11.102Z,464.00
2023-04-23T01:20:11.091Z,461.00
2023-04-23T01:21:11.123Z,459.00
2023-04-23T01:22:11.094Z,459.00
2023-04-23T01:23:11.133Z,462.00
2023-04-23T01:24:11.145Z,462.00
2023-04-23T01:25:11.141Z,461.00
2023-04-23T01:26:11.118Z,461.00
2023-04-23T01:27:11.120Z,462.00
2023-04-23T01:28:11.098Z,462.00
2023-04-23T01:29:11.125Z,466.00
2023-04-23T01:30:11.099Z,468.00
2023-04-23T01:31:11.140Z,470.00
2023-04-23T01:32:11.120Z,473.00
2023-04-23T01:33:11.119Z,478.00
2023-04-23T01:34:11.107Z,477.00
2023-04-23T01:35:11.116Z,476.00
2023-04-23T01:36:11.122Z,477.00
2023-04-23T01:37:11.137Z,476.00
2023-04-23T01:38:11.161Z,477.00
2023-04-23T01:39:11.167Z,479.00
2023-04-23T01:40:11.115Z,479.00
2023-04-23T01:41:11.135Z,476.00
2023-04-23T01:42:11.755Z,473.00
2023-04-23T01:43:11.122Z,472.00
2023-04-23T01:44:11.116Z,471.00
2023-04-23T01:45:11.109Z,471.00
2023-04-23T01:46:11.160Z,471.00
2023-04-23T01:47:11.136Z,472.00
2023-04-23T01:48:11.138Z,473.00
2023-04-23T01:49:11.175Z,472.00
2023-04-23T01:50:11.160Z,472.00
2023-04-23T01:51:11.174Z,474.00
2023-04-23T01:52:11.174Z,476.00
2023-04-23T01:53:11.174Z,476.00
2023-04-23T01:54:11.153Z,476.00
2023-04-23T01:55:11.168Z,475.00
2023-04-23T01:56:11.148Z,475.00
2023-04-23T01:57:11.157Z,477.00
2023-04-23T01:58:11.201Z,480.00
2023-04-23T01:59:11.161Z,478.00
2023-04-23T02:00:11.276Z,479.00
2023-04-23T02:01:11.225Z,479.00
2023-04-23T02:02:11.282Z,478.00
2023-04-23T02:03:11.313Z,477.00
2023-04-23T02:04:11.302Z,477.00
2023-04-23T02:05:11.245Z,478.00
2023-04-23T02:06:11.261Z,476.00
2023-04-23T02:07:11.288Z,477.00
2023-04-23T02:08:11.283Z,477.00
2023-04-23T02:09:11.301Z,477.00
2023-04-23T02:10:11.309Z,478.00
2023-04-23T02:11:11.318Z,478.00
2023-04-23T02:12:11.345Z,477.00
2023-04-23T02:13:11.366Z,477.00
2023-04-23T02:14:11.377Z,476.00
2023-04-23T02:15:12.740Z,479.00
2023-04-23T02:16:11.435Z,478.00
2023-04-23T02:17:11.423Z,479.00
2023-04-23T02:18:11.419Z,479.00
2023-04-23T02:19:14.045Z,480.00
2023-04-23T02:20:11.424Z,479.00
2023-04-23T02:21:11.421Z,479.00
2023-04-23T02:22:11.387Z,477.00
2023-04-23T02:23:11.400Z,476.00
2023-04-23T02:24:11.401Z,479.00
2023-04-23T02:25:11.396Z,481.00
2023-04-23T02:26:11.369Z,480.00
2023-04-23T02:27:11.391Z,479.00
2023-04-23T02:28:11.383Z,478.00
2023-04-23T02:29:11.376Z,478.00
2023-04-23T02:30:11.389Z,478.00
2023-04-23T02:31:11.363Z,478.00
2023-04-23T02:32:11.353Z,478.00
2023-04-23T02:33:11.333Z,479.00
2023-04-23T02:34:11.345Z,480.00
2023-04-23T02:35:11.327Z,479.00
2023-04-23T02:36:11.343Z,477.00
2023-04-23T02:37:11.297Z,478.00
2023-04-23T02:38:11.306Z,475.00
2023-04-23T02:39:11.296Z,474.00
2023-04-23T02:40:11.303Z,473.00
2023-04-23T02:41:11.303Z,470.00
2023-04-23T02:42:11.263Z,472.00
2023-04-23T02:43:11.304Z,473.00
2023-04-23T02:44:11.279Z,473.00
2023-04-23T02:45:11.283Z,472.00
2023-04-23T02:46:11.263Z,471.00
2023-04-23T02:47:11.248Z,474.00
2023-04-23T02:48:11.257Z,477.00
2023-04-23T02:49:11.263Z,477.00
2023-04-23T02:50:11.222Z,476.00
2023-04-23T02:51:11.243Z,476.00
2023-04-23T02:52:11.220Z,476.00
2023-04-23T02:53:11.209Z,475.00
2023-04-23T02:54:11.198Z,474.00
2023-04-23T02:55:11.202Z,474.00
2023-04-23T02:56:11.186Z,474.00
2023-04-23T02:57:11.209Z,474.00
2023-04-23T02:58:11.193Z,475.00
2023-04-23T02:59:11.175Z,473.00
2023-04-23T03:00:11.169Z,471.00
2023-04-23T03:01:11.170Z,471.00
2023-04-23T03:02:11.218Z,470.00
2023-04-23T03:03:12.631Z,469.00
2023-04-23T03:04:11.294Z,471.00
2023-04-23T03:05:11.129Z,472.00
2023-04-23T03:06:11.134Z,473.00
2023-04-23T03:07:11.122Z,472.00
2023-04-23T03:08:11.121Z,472.00
2023-04-23T03:09:11.124Z,472.00
2023-04-23T03:10:11.150Z,473.00
2023-04-23T03:11:11.104Z,474.00
2023-04-23T03:12:11.108Z,474.00
2023-04-23T03:13:11.070Z,476.00
2023-04-23T03:14:11.070Z,477.00
2023-04-23T03:15:11.076Z,478.00
2023-04-23T03:16:11.092Z,482.00
2023-04-23T03:17:11.036Z,483.00
2023-04-23T03:18:11.097Z,484.00
2023-04-23T03:19:11.099Z,483.00
2023-04-23T03:20:11.089Z,482.00
2023-04-23T03:21:11.130Z,481.00
2023-04-23T03:22:11.186Z,481.00
2023-04-23T03:23:11.227Z,482.00
2023-04-23T03:24:11.182Z,482.00
2023-04-23T03:25:11.213Z,483.00
2023-04-23T03:26:11.249Z,483.00
2023-04-23T03:27:11.272Z,480.00
2023-04-23T03:28:11.289Z,477.00
2023-04-23T03:29:11.309Z,475.00
2023-04-23T03:30:11.320Z,475.00
2023-04-23T03:31:11.427Z,474.00
2023-04-23T03:32:11.367Z,476.00
2023-04-23T03:33:11.417Z,474.00
2023-04-23T03:34:11.452Z,474.00
2023-04-23T03:35:11.471Z,473.00
2023-04-23T03:36:11.517Z,471.00
2023-04-23T03:37:11.505Z,471.00
2023-04-23T03:38:11.610Z,470.00
2023-04-23T03:39:11.573Z,466.00
2023-04-23T03:40:11.593Z,467.00
2023-04-23T03:41:11.591Z,470.00
2023-04-23T03:42:11.648Z,472.00
2023-04-23T03:43:11.658Z,472.00
2023-04-23T03:44:11.680Z,471.00
2023-04-23T03:45:11.707Z,470.00
2023-04-23T03:46:11.786Z,469.00
2023-04-23T03:47:11.771Z,471.00
2023-04-23T03:48:11.802Z,470.00
2023-04-23T03:49:11.834Z,470.00
2023-04-23T03:50:11.814Z,468.00
2023-04-23T03:51:11.839Z,469.00
2023-04-23T03:52:11.868Z,467.00
2023-04-23T03:53:11.909Z,468.00
2023-04-23T03:54:11.911Z,467.00
2023-04-23T03:55:11.955Z,467.00
2023-04-23T03:56:11.989Z,465.00
2023-04-23T03:57:12.015Z,468.00
2023-04-23T03:58:12.010Z,470.00
2023-04-23T03:59:12.019Z,468.00
2023-04-23T04:00:12.058Z,470.00
2023-04-23T04:01:12.061Z,471.00
2023-04-23T04:02:12.215Z,470.00
2023-04-23T04:03:12.221Z,469.00
2023-04-23T04:04:12.368Z,473.00
2023-04-23T04:05:12.454Z,474.00
2023-04-23T04:06:12.178Z,475.00
2023-04-23T04:07:12.224Z,475.00
2023-04-23T04:08:12.255Z,472.00
2023-04-23T04:09:12.270Z,473.00
2023-04-23T04:10:12.268Z,475.00
2023-04-23T04:11:12.267Z,475.00
2023-04-23T04:12:12.311Z,473.00
2023-04-23T04:13:12.349Z,472.00
2023-04-23T04:14:12.359Z,473.00
2023-04-23T04:15:12.372Z,474.00
2023-04-23T04:16:12.460Z,473.00
2023-04-23T04:17:12.456Z,473.00
2023-04-23T04:18:12.468Z,469.00
2023-04-23T04:19:12.463Z,467.00
2023-04-23T04:20:12.486Z,468.00
2023-04-23T04:21:12.484Z,468.00
2023-04-23T04:22:12.534Z,471.00
2023-04-23T04:23:12.586Z,474.00
2023-04-23T04:24:12.561Z,472.00
2023-04-23T04:25:12.571Z,474.00
2023-04-23T04:26:12.637Z,473.00
2023-04-23T04:27:12.666Z,472.00
2023-04-23T04:28:12.669Z,471.00
2023-04-23T04:29:12.671Z,475.00
2023-04-23T04:30:12.693Z,475.00
2023-04-23T04:31:12.771Z,474.00
2023-04-23T04:32:12.752Z,475.00
2023-04-23T04:33:12.788Z,477.00
2023-04-23T04:34:12.809Z,476.00
2023-04-23T04:35:12.837Z,476.00
2023-04-23T04:36:12.862Z,476.00
2023-04-23T04:37:12.879Z,477.00
2023-04-23T04:38:12.888Z,478.00
2023-04-23T04:39:12.926Z,477.00
2023-04-23T04:40:12.962Z,476.00
2023-04-23T04:41:12.967Z,475.00
2023-04-23T04:42:13.017Z,476.00
2023-04-23T04:43:13.024Z,474.00
2023-04-23T04:44:13.086Z,475.00
2023-04-23T04:45:13.113Z,476.00
2023-04-23T04:46:13.105Z,477.00
2023-04-23T04:47:13.175Z,476.00
2023-04-23T04:48:13.185Z,477.00
2023-04-23T04:49:13.188Z,478.00
2023-04-23T04:50:13.257Z,480.00
2023-04-23T04:51:13.260Z,480.00
2023-04-23T04:52:13.299Z,482.00
2023-04-23T04:53:13.341Z,482.00
2023-04-23T04:54:13.385Z,482.00
2023-04-23T04:55:13.416Z,480.00
2023-04-23T04:56:13.451Z,480.00
2023-04-23T04:57:13.434Z,479.00
2023-04-23T04:58:13.482Z,481.00
2023-04-23T04:59:13.540Z,481.00
2023-04-23T05:00:13.560Z,480.00
2023-04-23T05:01:13.621Z,480.00
2023-04-23T05:02:13.700Z,480.00
2023-04-23T05:03:14.401Z,478.00
2023-04-23T05:04:13.827Z,477.00
2023-04-23T05:05:13.689Z,476.00
2023-04-23T05:06:13.701Z,479.00
2023-04-23T05:07:13.747Z,482.00
2023-04-23T05:08:13.791Z,483.00
2023-04-23T05:09:13.778Z,481.00
2023-04-23T05:10:13.828Z,479.00
2023-04-23T05:11:13.832Z,480.00
2023-04-23T05:12:13.861Z,482.00
2023-04-23T05:13:13.892Z,480.00
2023-04-23T05:14:13.910Z,480.00
2023-04-23T05:15:13.950Z,482.00
2023-04-23T05:16:13.988Z,481.00
2023-04-23T05:17:13.989Z,482.00
2023-04-23T05:18:14.048Z,485.00
2023-04-23T05:19:14.056Z,486.00
2023-04-23T05:20:14.089Z,485.00
2023-04-23T05:21:14.107Z,484.00
2023-04-23T05:22:14.122Z,488.00
2023-04-23T05:23:14.181Z,489.00
2023-04-23T05:24:14.201Z,487.00
2023-04-23T05:25:14.213Z,487.00
2023-04-23T05:26:14.269Z,487.00
2023-04-23T05:27:14.307Z,485.00
2023-04-23T05:28:14.323Z,485.00
2023-04-23T05:29:14.406Z,484.00
2023-04-23T05:30:14.397Z,483.00
2023-04-23T05:31:14.417Z,483.00
2023-04-23T05:32:14.428Z,481.00
2023-04-23T05:33:14.472Z,484.00
2023-04-23T05:34:14.447Z,484.00
2023-04-23T05:35:14.503Z,484.00
2023-04-23T05:36:14.514Z,483.00
2023-04-23T05:37:14.590Z,483.00
2023-04-23T05:38:14.595Z,484.00
2023-04-23T05:39:14.649Z,482.00
2023-04-23T05:40:14.626Z,481.00
2023-04-23T05:41:14.658Z,479.00
2023-04-23T05:42:14.699Z,478.00
2023-04-23T05:43:14.770Z,479.00
2023-04-23T05:44:14.731Z,480.00
2023-04-23T05:45:14.772Z,478.00
2023-04-23T05:46:14.812Z,478.00
2023-04-23T05:47:14.793Z,475.00
2023-04-23T05:48:14.818Z,474.00
2023-04-23T05:49:14.885Z,475.00
2023-04-23T05:50:14.892Z,475.00
2023-04-23T05:51:14.955Z,475.00
2023-04-23T05:52:14.922Z,473.00
2023-04-23T05:53:15.006Z,475.00
2023-04-23T05:54:15.011Z,475.00
2023-04-23T05:55:15.015Z,475.00
2023-04-23T05:56:15.067Z,480.00
2023-04-23T05:57:15.080Z,485.00
2023-04-23T05:58:15.103Z,485.00
2023-04-23T05:59:15.098Z,483.00
2023-04-23T06:00:15.155Z,483.00
2023-04-23T06:01:15.207Z,479.00
2023-04-23T06:02:15.272Z,477.00
2023-04-23T06:03:15.472Z,478.00
2023-04-23T06:04:15.570Z,479.00
2023-04-23T06:05:15.520Z,479.00
2023-04-23T06:06:15.332Z,482.00
2023-04-23T06:07:15.375Z,481.00
2023-04-23T06:08:15.396Z,483.00
2023-04-23T06:09:15.421Z,483.00
2023-04-23T06:10:15.435Z,483.00
2023-04-23T06:11:15.474Z,483.00
2023-04-23T06:12:15.510Z,484.00
2023-04-23T06:13:15.518Z,485.00
2023-04-23T06:14:15.566Z,483.00
2023-04-23T06:15:15.570Z,486.00
2023-04-23T06:16:15.638Z,488.00
2023-04-23T06:17:15.624Z,489.00
2023-04-23T06:18:15.719Z,490.00
2023-04-23T06:19:15.658Z,490.00
2023-04-23T06:20:15.754Z,492.00
2023-04-23T06:21:16.114Z,493.00
2023-04-23T06:22:15.742Z,493.00
2023-04-23T06:23:15.770Z,493.00
2023-04-23T06:24:15.773Z,492.00
2023-04-23T06:25:15.844Z,493.00
2023-04-23T06:26:15.892Z,492.00
2023-04-23T06:27:16.070Z,489.00
2023-04-23T06:28:15.918Z,492.00
2023-04-23T06:29:15.935Z,492.00
2023-04-23T06:30:16.005Z,493.00
2023-04-23T06:31:16.074Z,491.00
2023-04-23T06:32:17.306Z,491.00
2023-04-23T06:33:16.035Z,493.00
2023-04-23T06:34:16.013Z,492.00
2023-04-23T06:35:16.010Z,491.00
2023-04-23T06:36:16.010Z,491.00
2023-04-23T06:37:16.004Z,489.00
2023-04-23T06:38:15.987Z,490.00
2023-04-23T06:39:15.972Z,490.00
2023-04-23T06:40:16.009Z,487.00
2023-04-23T06:41:15.966Z,488.00
2023-04-23T06:42:15.973Z,487.00
2023-04-23T06:43:15.991Z,487.00
2023-04-23T06:44:15.952Z,485.00
2023-04-23T06:45:15.954Z,485.00
2023-04-23T06:46:15.956Z,486.00
2023-04-23T06:47:15.948Z,486.00
2023-04-23T06:48:15.934Z,485.00
2023-04-23T06:49:15.924Z,487.00
2023-04-23T06:50:15.916Z,487.00
2023-04-23T06:51:15.964Z,491.00
2023-04-23T06:52:15.913Z,491.00
2023-04-23T06:53:15.935Z,491.00
2023-04-23T06:54:15.891Z,490.00
2023-04-23T06:55:15.908Z,488.00
2023-04-23T06:56:15.880Z,487.00
2023-04-23T06:57:15.910Z,484.00
2023-04-23T06:58:16.587Z,484.00
2023-04-23T06:59:15.882Z,485.00
2023-04-23T07:00:15.867Z,485.00
2023-04-23T07:01:15.847Z,487.00
2023-04-23T07:02:15.837Z,488.00
2023-04-23T07:03:15.911Z,488.00
2023-04-23T07:04:15.909Z,490.00
2023-04-23T07:05:15.809Z,490.00
2023-04-23T07:06:15.822Z,490.00
2023-04-23T07:07:15.840Z,489.00
2023-04-23T07:08:15.804Z,489.00
2023-04-23T07:09:15.834Z,489.00
2023-04-23T07:10:17.944Z,488.00
2023-04-23T07:11:15.850Z,489.00
2023-04-23T07:12:15.800Z,487.00
2023-04-23T07:13:15.813Z,488.00
2023-04-23T07:14:15.863Z,486.00
2023-04-23T07:15:15.926Z,484.00
2023-04-23T07:16:15.931Z,483.00
2023-04-23T07:17:15.935Z,481.00
2023-04-23T07:18:16.003Z,480.00
2023-04-23T07:19:16.026Z,481.00
2023-04-23T07:20:16.070Z,478.00
2023-04-23T07:21:16.126Z,477.00
2023-04-23T07:22:16.136Z,477.00
2023-04-23T07:23:16.181Z,476.00
2023-04-23T07:24:16.217Z,473.00
2023-04-23T07:25:16.266Z,471.00
2023-04-23T07:26:16.308Z,472.00
2023-04-23T07:27:16.323Z,472.00
2023-04-23T07:28:16.369Z,471.00
2023-04-23T07:29:16.375Z,472.00
2023-04-23T07:30:16.455Z,469.00
2023-04-23T07:31:16.436Z,467.00
2023-04-23T07:32:16.615Z,467.00
2023-04-23T07:33:16.513Z,467.00
2023-04-23T07:34:16.557Z,466.00
2023-04-23T07:35:16.586Z,465.00
2023-04-23T07:36:16.638Z,467.00
2023-04-23T07:37:16.629Z,470.00
2023-04-23T07:38:16.675Z,474.00
2023-04-23T07:39:16.803Z,475.00
2023-04-23T07:40:16.716Z,476.00
2023-04-23T07:41:16.767Z,477.00
2023-04-23T07:42:16.808Z,477.00
2023-04-23T07:43:16.898Z,476.00
2023-04-23T07:44:16.877Z,478.00
2023-04-23T07:45:16.904Z,480.00
2023-04-23T07:46:16.946Z,480.00
2023-04-23T07:47:16.924Z,477.00
2023-04-23T07:48:16.964Z,476.00
2023-04-23T07:49:16.962Z,476.00
2023-04-23T07:50:17.027Z,476.00
2023-04-23T07:51:17.016Z,474.00
2023-04-23T07:52:17.054Z,474.00
2023-04-23T07:53:17.102Z,472.00
2023-04-23T07:54:17.110Z,470.00
2023-04-23T07:55:17.129Z,468.00
2023-04-23T07:56:17.150Z,467.00
2023-04-23T07:57:17.174Z,467.00
2023-04-23T07:58:17.222Z,468.00
2023-04-23T07:59:17.194Z,468.00
2023-04-23T08:00:17.201Z,467.00
2023-04-23T08:01:17.258Z,468.00
2023-04-23T08:02:17.350Z,469.00
2023-04-23T08:03:17.383Z,467.00
2023-04-23T08:04:17.497Z,466.00
2023-04-23T08:05:17.397Z,466.00
2023-04-23T08:06:17.362Z,468.00
2023-04-23T08:07:17.362Z,468.00
2023-04-23T08:08:17.398Z,468.00
2023-04-23T08:09:17.415Z,468.00
2023-04-23T08:10:17.825Z,466.00
2023-04-23T08:11:17.452Z,465.00
2023-04-23T08:12:17.506Z,464.00
2023-04-23T08:13:17.550Z,464.00
2023-04-23T08:14:17.525Z,465.00
2023-04-23T08:15:17.590Z,464.00
2023-04-23T08:16:17.630Z,462.00
2023-04-23T08:17:17.641Z,460.00
2023-04-23T08:18:17.641Z,459.00
2023-04-23T08:19:17.640Z,459.00
2023-04-23T08:20:17.711Z,459.00
2023-04-23T08:21:17.679Z,459.00
2023-04-23T08:22:17.726Z,461.00
2023-04-23T08:23:17.766Z,462.00
2023-04-23T08:24:17.769Z,460.00
2023-04-23T08:25:17.795Z,462.00
2023-04-23T08:26:17.850Z,463.00
2023-04-23T08:27:17.847Z,461.00
2023-04-23T08:28:17.877Z,459.00
2023-04-23T08:29:17.874Z,459.00
2023-04-23T08:30:17.936Z,458.00
2023-04-23T08:31:25.523Z,456.00
2023-04-23T08:32:19.029Z,456.00
2023-04-23T08:33:17.989Z,456.00
2023-04-23T08:34:17.975Z,457.00
2023-04-23T08:35:17.983Z,457.00
2023-04-23T08:36:17.941Z,457.00
2023-04-23T08:37:29.612Z,455.00
2023-04-23T08:38:18.935Z,456.00
2023-04-23T08:39:17.945Z,454.00
2023-04-23T08:40:17.933Z,453.00
2023-04-23T08:41:17.925Z,454.00
2023-04-23T08:42:17.926Z,452.00
2023-04-23T08:43:17.913Z,450.00
2023-04-23T08:44:17.896Z,449.00
2023-04-23T08:45:17.885Z,450.00
2023-04-23T08:46:17.919Z,452.00
2023-04-23T08:47:17.893Z,454.00
2023-04-23T08:48:17.877Z,456.00
2023-04-23T08:49:17.910Z,458.00
2023-04-23T08:50:17.931Z,460.00
2023-04-23T08:51:17.848Z,459.00
2023-04-23T08:52:17.918Z,458.00
2023-04-23T08:53:17.861Z,457.00
2023-04-23T08:54:17.837Z,458.00
2023-04-23T08:55:17.827Z,460.00
2023-04-23T08:56:17.819Z,459.00
2023-04-23T08:57:17.802Z,458.00
2023-04-23T08:58:17.818Z,456.00
2023-04-23T08:59:17.808Z,458.00
2023-04-23T09:00:17.799Z,457.00
2023-04-23T09:01:17.822Z,456.00
2023-04-23T09:02:17.814Z,456.00
2023-04-23T09:03:17.828Z,456.00
2023-04-23T09:04:17.770Z,455.00
2023-04-23T09:05:17.769Z,452.00
2023-04-23T09:06:17.735Z,452.00
2023-04-23T09:07:17.717Z,451.00
2023-04-23T09:08:17.748Z,449.00
2023-04-23T09:09:17.755Z,449.00
2023-04-23T09:10:18.730Z,450.00
2023-04-23T09:11:17.710Z,451.00
2023-04-23T09:12:17.700Z,451.00
2023-04-23T09:13:17.728Z,448.00
2023-04-23T09:14:17.738Z,449.00
2023-04-23T09:15:17.754Z,452.00
2023-04-23T09:16:17.843Z,454.00
2023-04-23T09:17:17.839Z,453.00
2023-04-23T09:18:17.953Z,452.00
2023-04-23T09:19:17.967Z,449.00
2023-04-23T09:20:18.038Z,447.00
2023-04-23T09:21:18.092Z,445.00
2023-04-23T09:22:18.166Z,445.00
2023-04-23T09:23:18.210Z,445.00
2023-04-23T09:24:18.273Z,444.00
2023-04-23T09:25:18.301Z,443.00
2023-04-23T09:26:18.412Z,444.00
2023-04-23T09:27:18.415Z,442.00
2023-04-23T09:28:18.449Z,441.00
2023-04-23T09:29:18.525Z,444.00
2023-04-23T09:30:18.596Z,445.00
2023-04-23T09:31:18.640Z,445.00
2023-04-23T09:32:18.817Z,445.00
2023-04-23T09:33:18.734Z,444.00
2023-04-23T09:34:18.811Z,444.00
2023-04-23T09:35:18.841Z,443.00
2023-04-23T09:36:18.895Z,442.00
2023-04-23T09:37:18.951Z,440.00
2023-04-23T09:38:18.964Z,438.00
2023-04-23T09:39:19.064Z,439.00
2023-04-23T09:40:19.124Z,438.00
2023-04-23T09:41:19.126Z,439.00
2023-04-23T09:42:19.199Z,437.00
2023-04-23T09:43:19.225Z,436.00
2023-04-23T09:44:19.275Z,436.00
2023-04-23T09:45:19.331Z,436.00
2023-04-23T09:46:19.386Z,437.00
2023-04-23T09:47:19.366Z,438.00
2023-04-23T09:48:19.426Z,441.00
2023-04-23T09:49:19.469Z,440.00
2023-04-23T09:50:19.483Z,442.00
2023-04-23T09:51:19.523Z,442.00
2023-04-23T09:52:19.556Z,443.00
2023-04-23T09:53:19.608Z,443.00
2023-04-23T09:54:19.607Z,442.00
2023-04-23T09:55:19.685Z,442.00
2023-04-23T09:56:19.630Z,441.00
2023-04-23T09:57:19.665Z,442.00
2023-04-23T09:58:19.699Z,444.00
2023-04-23T09:59:19.749Z,443.00
2023-04-23T10:00:20.056Z,445.00
2023-04-23T10:01:19.799Z,445.00
2023-04-23T10:02:19.863Z,446.00
2023-04-23T10:03:19.857Z,446.00
2023-04-23T10:04:19.956Z,445.00
2023-04-23T10:05:23.462Z,442.00
2023-04-23T10:06:39.576Z,439.00
2023-04-23T10:07:21.424Z,438.00
2023-04-23T10:08:19.824Z,435.00
2023-04-23T10:09:19.801Z,434.00
2023-04-23T10:10:19.805Z,435.00
2023-04-23T10:11:21.093Z,433.00
2023-04-23T10:13:21.404Z,438.00
2023-04-23T10:14:19.804Z,437.00
2023-04-23T10:15:19.760Z,439.00
2023-04-23T10:16:23.229Z,440.00
2023-04-23T10:17:20.758Z,438.00
2023-04-23T10:18:19.725Z,436.00
2023-04-23T10:19:19.720Z,433.00
2023-04-23T10:20:19.731Z,432.00
2023-04-23T10:21:19.714Z,432.00
2023-04-23T10:22:20.237Z,436.00
2023-04-23T10:23:19.708Z,439.00
2023-04-23T10:24:19.804Z,436.00
2023-04-23T10:25:19.693Z,436.00
2023-04-23T10:26:19.705Z,438.00
2023-04-23T10:28:19.665Z,437.00
2023-04-23T10:29:19.687Z,435.00
2023-04-23T10:30:19.649Z,435.00
2023-04-23T10:31:19.647Z,434.00
2023-04-23T10:32:19.658Z,435.00
2023-04-23T10:33:29.381Z,435.00
2023-04-23T10:34:20.676Z,436.00
2023-04-23T10:35:19.684Z,436.00
2023-04-23T10:36:19.621Z,435.00
2023-04-23T10:37:19.602Z,435.00
2023-04-23T10:38:19.607Z,436.00
2023-04-23T10:39:27.545Z,434.00
2023-04-23T10:40:20.591Z,434.00
2023-04-23T10:41:20.687Z,433.00
2023-04-23T10:42:19.589Z,432.00
2023-04-23T10:43:19.546Z,430.00
2023-04-23T10:44:33.034Z,431.00
2023-04-23T10:45:24.290Z,432.00
2023-04-23T10:46:19.557Z,430.00
2023-04-23T10:47:19.571Z,430.00
2023-04-23T10:48:19.543Z,429.00
2023-04-23T10:49:19.501Z,431.00
2023-04-23T10:50:19.518Z,430.00
2023-04-23T10:52:22.337Z,423.00
2023-04-23T10:53:19.517Z,424.00
2023-04-23T10:54:19.475Z,425.00
2023-04-23T10:55:19.486Z,423.00
2023-04-23T10:56:19.464Z,426.00
2023-04-23T10:57:19.452Z,428.00
2023-04-23T10:58:19.460Z,429.00
2023-04-23T10:59:19.464Z,430.00
2023-04-23T11:00:19.437Z,427.00
2023-04-23T11:01:19.512Z,427.00
2023-04-23T11:02:19.515Z,429.00
2023-04-23T11:03:19.523Z,430.00
2023-04-23T11:04:19.514Z,430.00
2023-04-23T11:05:19.410Z,430.00
2023-04-23T11:06:19.390Z,432.00
2023-04-23T11:07:19.396Z,435.00
2023-04-23T11:08:20.156Z,433.00
2023-04-23T11:09:19.366Z,433.00
2023-04-23T11:10:19.376Z,434.00
2023-04-23T11:11:19.379Z,431.00
2023-04-23T11:12:19.400Z,430.00
2023-04-23T11:13:19.386Z,430.00
2023-04-23T11:14:19.337Z,430.00
2023-04-23T11:15:19.382Z,430.00
2023-04-23T11:16:19.372Z,428.00
2023-04-23T11:17:19.417Z,426.00
2023-04-23T11:18:19.510Z,427.00
2023-04-23T11:19:20.739Z,428.00
2023-04-23T11:20:19.617Z,428.00
2023-04-23T11:21:19.687Z,428.00
2023-04-23T11:22:19.731Z,428.00
2023-04-23T11:23:19.765Z,429.00
2023-04-23T11:24:19.844Z,430.00
2023-04-23T11:25:19.892Z,429.00
2023-04-23T11:26:19.976Z,431.00
2023-04-23T11:27:20.058Z,430.00
2023-04-23T11:28:20.078Z,429.00
2023-04-23T11:29:20.154Z,428.00
2023-04-23T11:30:20.208Z,428.00
2023-04-23T11:31:20.292Z,429.00
2023-04-23T11:32:20.390Z,427.00
2023-04-23T11:33:20.408Z,428.00
2023-04-23T11:34:20.451Z,429.00
2023-04-23T11:35:20.523Z,429.00
2023-04-23T11:36:20.577Z,429.00
2023-04-23T11:37:20.628Z,429.00
2023-04-23T11:38:20.676Z,429.00
2023-04-23T11:39:20.758Z,430.00
2023-04-23T11:40:20.791Z,431.00
2023-04-23T11:41:20.851Z,431.00
2023-04-23T11:42:20.896Z,428.00
2023-04-23T11:43:20.960Z,428.00
2023-04-23T11:44:21.015Z,429.00
2023-04-23T11:45:21.025Z,430.00
2023-04-23T11:46:21.181Z,428.00
2023-04-23T11:47:21.124Z,428.00
2023-04-23T11:48:21.178Z,425.00
2023-04-23T11:49:21.235Z,425.00
2023-04-23T11:50:21.306Z,423.00
2023-04-23T11:51:21.348Z,420.00
2023-04-23T11:52:21.414Z,421.00
2023-04-23T11:53:21.473Z,422.00
2023-04-23T11:54:21.530Z,424.00
2023-04-23T11:55:21.554Z,425.00
2023-04-23T11:56:21.639Z,428.00
2023-04-23T11:57:21.682Z,425.00
2023-04-23T11:58:21.731Z,425.00
2023-04-23T11:59:21.804Z,425.00
2023-04-23T12:00:21.815Z,425.00
2023-04-23T12:01:21.864Z,426.00
2023-04-23T12:02:22.063Z,426.00
2023-04-23T12:03:22.130Z,426.00
2023-04-23T12:04:22.253Z,426.00
2023-04-23T12:05:22.117Z,422.00
2023-04-23T12:06:22.153Z,421.00
2023-04-23T12:07:26.686Z,424.00
2023-04-23T12:08:22.220Z,423.00
2023-04-23T12:09:22.211Z,425.00
2023-04-23T12:10:22.170Z,426.00
2023-04-23T12:11:22.177Z,422.00
2023-04-23T12:12:22.158Z,425.00
2023-04-23T12:13:22.154Z,426.00
2023-04-23T12:14:22.168Z,423.00
2023-04-23T12:15:22.145Z,425.00
2023-04-23T12:16:22.172Z,425.00
2023-04-23T12:17:22.139Z,426.00
2023-04-23T12:18:22.126Z,424.00
2023-04-23T12:19:22.158Z,424.00
2023-04-23T12:20:22.153Z,424.00
2023-04-23T12:21:24.592Z,425.00
2023-04-23T12:22:22.141Z,426.00
2023-04-23T12:23:22.176Z,423.00
2023-04-23T12:24:22.162Z,424.00
2023-04-23T12:25:22.171Z,424.00
2023-04-23T12:26:22.152Z,423.00
2023-04-23T12:27:22.156Z,423.00
2023-04-23T12:28:22.125Z,427.00
2023-04-23T12:29:22.132Z,426.00
2023-04-23T12:30:22.118Z,426.00
2023-04-23T12:31:22.177Z,427.00